createdAt,value
2018-01-12T00:01:55.228Z,40.00
2018-01-12T00:04:22.162Z,36.83
2018-01-12T00:06:49.072Z,41.33
2018-01-12T00:09:16.764Z,42.28
2018-01-12T00:11:43.708Z,41.10
2018-01-12T00:14:11.580Z,41.05
2018-01-12T00:16:38.522Z,41.75
2018-01-12T00:19:05.468Z,40.95
2018-01-12T00:21:37.208Z,40.47
2018-01-12T00:24:04.135Z,41.88
2018-01-12T00:26:32.842Z,44.58
2018-01-12T00:29:00.804Z,40.72
2018-01-12T00:31:27.744Z,42.90
2018-01-12T00:33:55.421Z,44.38
2018-01-12T00:36:23.260Z,40.03
2018-01-12T00:38:50.937Z,40.17
2018-01-12T00:41:17.857Z,43.95
2018-01-12T00:43:44.855Z,42.55
2018-01-12T00:46:11.824Z,41.28
2018-01-12T00:48:38.745Z,43.25
2018-01-12T00:51:05.669Z,42.30
2018-01-12T00:53:32.602Z,45.17
2018-01-12T00:55:59.534Z,44.85
2018-01-12T00:58:27.208Z,40.80
2018-01-12T01:00:54.898Z,43.92
2018-01-12T01:03:21.805Z,43.83
2018-01-12T01:05:49.522Z,44.72
2018-01-12T01:08:16.452Z,45.72
2018-01-12T01:10:43.393Z,45.47
2018-01-12T01:13:10.328Z,46.90
2018-01-12T01:15:37.252Z,42.88
2018-01-12T01:18:04.176Z,47.13
2018-01-12T01:20:31.898Z,47.15
2018-01-12T01:22:58.808Z,44.45
2018-01-12T01:25:26.671Z,48.67
2018-01-12T01:27:54.366Z,47.83
2018-01-12T01:30:21.283Z,44.22
2018-01-12T01:32:48.189Z,46.97
2018-01-12T01:35:15.122Z,44.17
2018-01-12T01:37:42.056Z,47.13
2018-01-12T01:40:08.992Z,48.25
2018-01-12T01:42:35.908Z,46.60
2018-01-12T01:45:02.852Z,50.72
2018-01-12T01:47:29.766Z,44.75
2018-01-12T01:49:57.485Z,46.08
2018-01-12T01:52:24.388Z,48.92
2018-01-12T01:54:52.082Z,47.50
2018-01-12T01:57:19.040Z,48.63
2018-01-12T01:59:45.982Z,47.70
2018-01-12T02:02:12.904Z,45.15
2018-01-12T02:04:39.851Z,46.92
2018-01-12T02:07:06.784Z,49.38
2018-01-12T02:09:33.720Z,47.80
2018-01-12T02:12:01.408Z,47.13
2018-01-12T02:14:28.332Z,48.03
2018-01-12T02:16:56.025Z,45.92
2018-01-12T02:19:22.967Z,45.72
2018-01-12T02:21:49.880Z,47.53
2018-01-12T02:24:17.604Z,47.40
2018-01-12T02:26:44.519Z,46.42
2018-01-12T02:29:11.454Z,41.92
2018-01-12T02:31:38.403Z,45.12
2018-01-12T02:34:05.321Z,44.38
2018-01-12T02:36:33.008Z,42.60
2018-01-12T02:38:59.940Z,47.08
2018-01-12T02:41:26.889Z,45.00
2018-01-12T02:43:53.806Z,45.45
2018-01-12T02:46:21.492Z,41.58
2018-01-12T02:48:48.439Z,43.90
2018-01-12T02:51:15.377Z,46.33
2018-01-12T02:53:42.302Z,41.45
2018-01-12T02:56:09.976Z,45.92
2018-01-12T02:58:37.810Z,45.72
2018-01-12T03:01:04.736Z,44.38
2018-01-12T03:03:31.662Z,44.85
2018-01-12T03:05:58.570Z,42.88
2018-01-12T03:08:26.297Z,45.33
2018-01-12T03:10:53.208Z,43.25
2018-01-12T03:13:20.116Z,44.78
2018-01-12T03:15:47.807Z,45.15
2018-01-12T03:18:14.732Z,42.67
2018-01-12T03:20:42.416Z,48.17
2018-01-12T03:23:09.345Z,44.72
2018-01-12T03:25:36.262Z,42.95
2018-01-12T03:28:03.193Z,50.40
2018-01-12T03:30:31.608Z,47.03
2018-01-12T03:32:58.606Z,47.72
2018-01-12T03:35:25.516Z,49.78
2018-01-12T03:37:52.447Z,49.30
2018-01-12T03:40:19.364Z,45.75
2018-01-12T03:42:47.237Z,43.90
2018-01-12T03:45:14.159Z,51.88
2018-01-12T03:47:41.079Z,46.37
2018-01-12T03:50:09.664Z,48.75
2018-01-12T03:52:37.364Z,48.22
2018-01-12T03:55:04.271Z,47.30
2018-01-12T03:57:31.965Z,48.63
2018-01-12T03:59:58.877Z,46.80
2018-01-12T04:02:25.801Z,47.58
2018-01-12T04:04:52.710Z,48.85
2018-01-12T04:07:20.402Z,45.15
2018-01-12T04:09:47.389Z,44.78
2018-01-12T04:12:15.065Z,46.60
2018-01-12T04:14:41.994Z,46.35
2018-01-12T04:17:09.676Z,44.22
2018-01-12T04:19:36.635Z,44.08
2018-01-12T04:22:03.556Z,43.47
2018-01-12T04:24:31.243Z,43.90
2018-01-12T04:26:58.175Z,45.22
2018-01-12T04:29:25.109Z,43.58
2018-01-12T04:31:52.025Z,43.83
2018-01-12T04:34:18.952Z,41.20
2018-01-12T04:36:45.864Z,45.03
2018-01-12T04:39:12.792Z,44.33
2018-01-12T04:41:39.704Z,45.75
2018-01-12T04:44:06.628Z,41.25
2018-01-12T04:46:33.576Z,42.60
2018-01-12T04:49:00.500Z,43.20
2018-01-12T04:51:27.404Z,43.92
2018-01-12T04:53:55.101Z,38.08
2018-01-12T04:56:22.009Z,41.17
2018-01-12T04:58:49.698Z,40.92
2018-01-12T05:01:16.614Z,36.40
2018-01-12T05:03:44.304Z,36.55
2018-01-12T05:06:11.221Z,39.70
2018-01-12T05:08:38.913Z,37.38
2018-01-12T05:11:05.828Z,37.03
2018-01-12T05:13:33.563Z,36.60
2018-01-12T05:16:00.481Z,32.78
2018-01-12T05:18:27.413Z,36.28
2018-01-12T05:20:54.320Z,34.33
2018-01-12T05:23:21.251Z,36.40
2018-01-12T05:25:48.160Z,36.38
2018-01-12T05:28:15.085Z,34.58
2018-01-12T05:30:41.998Z,35.03
2018-01-12T05:33:08.939Z,39.63
2018-01-12T05:35:35.853Z,36.92
2018-01-12T05:38:03.535Z,38.55
2018-01-12T05:40:30.442Z,37.28
2018-01-12T05:42:57.383Z,42.10
2018-01-12T05:45:24.293Z,37.33
2018-01-12T05:47:51.982Z,38.40
2018-01-12T05:50:18.896Z,37.50
2018-01-12T05:52:46.585Z,38.17
2018-01-12T05:55:13.517Z,38.92
2018-01-12T05:57:40.453Z,36.90
2018-01-12T06:00:08.145Z,37.90
2018-01-12T06:02:47.063Z,40.95
2018-01-12T06:05:25.885Z,38.85
2018-01-12T06:07:52.847Z,37.67
2018-01-12T06:10:19.748Z,39.47
2018-01-12T06:12:46.667Z,41.75
2018-01-12T06:15:13.570Z,37.47
2018-01-12T06:17:40.508Z,38.35
2018-01-12T06:20:07.445Z,36.78
2018-01-12T06:22:34.397Z,38.13
2018-01-12T06:25:01.316Z,37.97
2018-01-12T06:27:28.249Z,39.25
2018-01-12T06:29:55.163Z,35.92
2018-01-12T06:32:23.004Z,38.80
2018-01-12T06:34:50.677Z,36.92
2018-01-12T06:37:17.681Z,38.28
2018-01-12T06:39:45.360Z,33.13
2018-01-12T06:42:13.052Z,39.78
2018-01-12T06:44:39.954Z,37.35
2018-01-12T06:47:06.881Z,39.03
2018-01-12T06:49:33.792Z,38.55
2018-01-12T06:52:00.721Z,38.22
2018-01-12T06:54:27.657Z,36.88
2018-01-12T06:56:55.323Z,38.92
2018-01-12T06:59:22.224Z,39.35
2018-01-12T07:01:49.156Z,39.53
2018-01-12T07:04:16.092Z,39.63
2018-01-12T07:06:43.038Z,37.00
2018-01-12T07:09:09.952Z,42.40
2018-01-12T07:11:36.872Z,42.40
2018-01-12T07:14:03.822Z,42.95
2018-01-12T07:16:30.755Z,41.20
2018-01-12T07:18:58.433Z,44.92
2018-01-12T07:21:37.405Z,42.70
2018-01-12T07:24:04.448Z,39.28
2018-01-12T07:26:31.385Z,41.00
2018-01-12T07:28:58.294Z,43.13
2018-01-12T07:31:25.228Z,40.08
2018-01-12T07:33:52.927Z,43.08
2018-01-12T07:36:19.850Z,42.83
2018-01-12T07:38:46.769Z,43.30
2018-01-12T07:41:14.476Z,43.28
2018-01-12T07:43:41.421Z,43.03
2018-01-12T07:46:08.349Z,40.95
2018-01-12T07:48:35.261Z,46.37
2018-01-12T07:51:02.965Z,42.30
2018-01-12T07:53:29.884Z,47.00
2018-01-12T07:55:57.575Z,45.70
2018-01-12T07:58:24.490Z,41.50
2018-01-12T08:00:52.218Z,43.22
2018-01-12T08:03:19.111Z,42.55
2018-01-12T08:05:46.023Z,39.70
2018-01-12T08:08:13.691Z,47.17
2018-01-12T08:10:41.384Z,43.53
2018-01-12T08:13:08.313Z,40.10
2018-01-12T08:15:35.236Z,41.75
2018-01-12T08:18:02.907Z,42.17
2018-01-12T08:20:30.595Z,39.90
2018-01-12T08:22:57.507Z,39.88
2018-01-12T08:25:25.176Z,38.78
2018-01-12T08:27:52.873Z,41.78
2018-01-12T08:30:19.786Z,39.72
2018-01-12T08:32:48.500Z,40.75
2018-01-12T08:37:59.484Z,37.13
2018-01-12T08:40:27.307Z,37.25
2018-01-12T08:42:54.221Z,39.03
2018-01-12T08:45:21.133Z,38.03
2018-01-12T08:47:49.013Z,40.30
2018-01-12T08:50:15.935Z,42.08
2018-01-12T08:52:42.892Z,42.05
2018-01-12T08:55:09.808Z,39.92
2018-01-12T08:57:37.514Z,40.78
2018-01-12T09:00:05.448Z,42.03
2018-01-12T09:02:32.371Z,43.65
2018-01-12T09:05:00.093Z,41.33
2018-01-12T09:07:27.024Z,40.55
2018-01-12T09:09:53.968Z,41.97
2018-01-12T09:12:20.892Z,41.80
2018-01-12T09:14:49.808Z,42.50
2018-01-12T09:17:29.323Z,45.08
2018-01-12T09:20:08.137Z,43.38
2018-01-12T09:22:44.624Z,43.63
2018-01-12T09:25:11.555Z,44.88
2018-01-12T09:27:38.461Z,44.03
2018-01-12T09:30:05.412Z,43.58
2018-01-12T09:32:32.321Z,38.47
2018-01-12T09:35:00.046Z,42.72
2018-01-12T09:37:29.412Z,39.75
2018-01-12T09:40:09.044Z,40.17
2018-01-12T09:42:35.959Z,41.50
2018-01-12T09:45:02.885Z,38.53
2018-01-12T09:47:39.664Z,40.42
2018-01-12T09:50:06.584Z,39.42
2018-01-12T09:52:34.265Z,40.97
2018-01-12T09:55:01.193Z,37.58
2018-01-12T09:57:29.875Z,40.25
2018-01-12T09:59:57.588Z,34.90
2018-01-12T10:02:24.516Z,38.92
2018-01-12T10:04:51.446Z,33.00
2018-01-12T10:07:18.355Z,31.67
2018-01-12T10:09:48.901Z,31.77
2018-01-12T10:12:16.581Z,34.65
2018-01-12T10:14:43.526Z,32.70
2018-01-12T10:17:10.448Z,34.13
2018-01-12T10:19:40.285Z,31.77
2018-01-12T10:22:07.209Z,31.08
2018-01-12T10:24:34.908Z,31.90
2018-01-12T10:27:02.745Z,29.48
2018-01-12T10:29:30.490Z,31.62
2018-01-12T10:32:07.207Z,29.23
2018-01-12T10:34:43.914Z,30.92
2018-01-12T10:37:10.818Z,29.77
2018-01-12T10:39:49.515Z,29.12
2018-01-12T10:42:16.420Z,27.35
2018-01-12T10:44:43.344Z,25.77
2018-01-12T10:47:23.941Z,27.15
2018-01-12T10:49:56.621Z,24.52
2018-01-12T10:55:21.909Z,25.25
2018-01-12T10:57:49.609Z,22.62
2018-01-12T11:00:32.070Z,23.62
2018-01-12T11:02:59.769Z,19.23
2018-01-12T11:05:26.673Z,21.87
2018-01-12T11:07:53.597Z,20.05
2018-01-12T11:10:20.513Z,20.85
2018-01-12T11:12:47.434Z,21.25
2018-01-12T11:15:14.352Z,19.75
2018-01-12T11:17:41.288Z,20.08
2018-01-12T11:20:08.191Z,18.80
2018-01-12T11:22:35.128Z,21.92
2018-01-12T11:25:02.028Z,18.77
2018-01-12T11:27:28.944Z,21.37
2018-01-12T11:29:55.868Z,20.48
2018-01-12T11:32:22.780Z,20.60
2018-01-12T11:34:50.468Z,19.00
2018-01-12T11:37:17.388Z,19.83
2018-01-12T11:39:45.082Z,19.40
2018-01-12T11:42:12.012Z,20.65
2018-01-12T11:44:38.933Z,21.30
2018-01-12T11:47:05.852Z,19.80
2018-01-12T11:49:32.772Z,19.73
2018-01-12T11:51:59.675Z,19.52
2018-01-12T11:54:27.365Z,18.30
2018-01-12T11:56:54.282Z,15.88
2018-01-12T11:59:21.991Z,19.37
2018-01-12T12:01:48.900Z,18.10
2018-01-12T12:04:15.837Z,16.55
2018-01-12T12:06:43.510Z,18.42
2018-01-12T12:09:10.458Z,19.00
2018-01-12T12:11:38.344Z,16.90
2018-01-12T12:14:05.268Z,16.70
2018-01-12T12:16:32.178Z,15.32
2018-01-12T12:18:59.103Z,17.62
2018-01-12T12:21:26.020Z,15.60
2018-01-12T12:23:52.948Z,15.43
2018-01-12T12:26:19.849Z,16.37
2018-01-12T12:28:46.781Z,14.15
2018-01-12T12:31:13.697Z,16.52
2018-01-12T12:33:40.624Z,15.60
2018-01-12T12:36:07.536Z,15.50
2018-01-12T12:38:34.468Z,15.48
2018-01-12T12:41:01.390Z,14.68
2018-01-12T12:43:28.332Z,15.90
2018-01-12T12:45:55.244Z,14.40
2018-01-12T12:48:22.184Z,17.55
2018-01-12T12:50:49.097Z,16.12
2018-01-12T12:53:16.017Z,16.52
2018-01-12T12:55:42.948Z,14.93
2018-01-12T12:58:09.909Z,14.60
2018-01-12T13:00:36.840Z,15.93
2018-01-12T13:03:04.796Z,15.15
2018-01-12T13:05:31.712Z,14.68
2018-01-12T13:07:58.635Z,15.55
2018-01-12T13:10:26.324Z,15.05
2018-01-12T13:12:53.248Z,15.27
2018-01-12T13:15:20.193Z,16.40
2018-01-12T13:17:47.121Z,14.55
2018-01-12T13:20:14.041Z,14.60
2018-01-12T13:22:40.989Z,13.73
2018-01-12T13:25:07.900Z,15.65
2018-01-12T13:27:35.594Z,15.90
2018-01-12T13:30:02.499Z,15.13
2018-01-12T13:32:29.427Z,19.45
2018-01-12T13:34:56.327Z,16.98
2018-01-12T13:37:23.244Z,17.30
2018-01-12T13:39:50.153Z,17.23
2018-01-12T13:42:17.065Z,18.15
2018-01-12T13:44:43.997Z,18.83
2018-01-12T13:47:10.917Z,18.00
2018-01-12T13:49:38.608Z,18.12
2018-01-12T13:52:05.520Z,16.50
2018-01-12T13:54:33.212Z,18.70
2018-01-12T13:57:00.122Z,16.20
2018-01-12T13:59:27.803Z,18.40
2018-01-12T14:01:54.717Z,19.65
2018-01-12T14:04:21.643Z,20.55
2018-01-12T14:06:48.552Z,18.27
2018-01-12T14:09:15.482Z,18.40
2018-01-12T14:11:42.412Z,17.20
2018-01-12T14:14:09.333Z,19.10
2018-01-12T14:16:37.978Z,18.02
2018-01-12T14:19:04.912Z,18.27
2018-01-12T14:21:31.837Z,17.33
2018-01-12T14:23:58.756Z,17.83
2018-01-12T14:26:26.457Z,15.50
2018-01-12T14:28:53.369Z,16.77
2018-01-12T14:31:21.035Z,15.27
2018-01-12T14:33:48.734Z,13.48
2018-01-12T14:36:15.665Z,14.35
2018-01-12T14:38:42.584Z,13.77
2018-01-12T14:41:10.269Z,12.80
2018-01-12T14:43:37.204Z,14.25
2018-01-12T14:46:04.132Z,13.43
2018-01-12T14:48:31.048Z,14.82
2018-01-12T14:50:57.953Z,14.13
2018-01-12T14:53:25.636Z,14.52
2018-01-12T14:55:52.546Z,15.55
2018-01-12T14:58:20.240Z,16.05
2018-01-12T15:00:47.152Z,16.58
2018-01-12T15:03:14.085Z,16.20
2018-01-12T15:05:40.984Z,18.02
2018-01-12T15:08:07.912Z,16.27
2018-01-12T15:10:34.818Z,17.77
2018-01-12T15:13:01.744Z,17.33
2018-01-12T15:15:28.647Z,15.00
2018-01-12T15:17:55.565Z,15.38
2018-01-12T15:20:22.472Z,18.33
2018-01-12T15:22:50.160Z,16.40
2018-01-12T15:25:17.068Z,17.48
2018-01-12T15:27:44.012Z,16.30
2018-01-12T15:30:11.686Z,15.63
2018-01-12T15:32:39.373Z,17.62
2018-01-12T15:35:06.288Z,16.23
2018-01-12T15:37:33.985Z,16.67
2018-01-12T15:40:00.894Z,14.80
2018-01-12T15:42:28.594Z,14.52
2018-01-12T15:44:55.499Z,15.38
2018-01-12T15:47:23.188Z,13.70
2018-01-12T15:49:50.087Z,15.10
2018-01-12T15:52:17.024Z,15.38
2018-01-12T15:54:43.935Z,15.27
2018-01-12T15:57:10.859Z,14.98
2018-01-12T15:59:37.786Z,15.13
2018-01-12T16:02:05.500Z,16.92
2018-01-12T16:04:32.421Z,14.40
2018-01-12T16:06:59.352Z,14.87
2018-01-12T16:09:26.276Z,14.57
2018-01-12T16:11:53.970Z,13.68
2018-01-12T16:14:20.884Z,13.70
2018-01-12T16:16:48.589Z,15.60
2018-01-12T16:19:15.509Z,14.07
2018-01-12T16:21:42.416Z,13.60
2018-01-12T16:24:09.341Z,13.38
2018-01-12T16:26:37.151Z,15.65
2018-01-12T16:29:04.835Z,15.40
2018-01-12T16:31:31.740Z,14.13
2018-01-12T16:33:58.659Z,15.07
2018-01-12T16:36:26.551Z,13.90
2018-01-12T16:38:54.248Z,14.35
2018-01-12T16:41:21.173Z,14.20
2018-01-12T16:43:48.864Z,14.38
2018-01-12T16:46:15.790Z,14.20
2018-01-12T16:48:46.228Z,13.62
2018-01-12T16:51:13.156Z,14.90
2018-01-12T16:53:40.076Z,14.70
2018-01-12T16:56:06.984Z,13.15
2018-01-12T16:58:33.912Z,14.27
2018-01-12T17:01:00.831Z,14.95
2018-01-12T17:03:27.757Z,15.80
2018-01-12T17:05:54.701Z,15.20
2018-01-12T17:08:21.672Z,15.32
2018-01-12T17:10:49.243Z,13.10
2018-01-12T17:13:16.946Z,13.98
2018-01-12T17:15:43.874Z,16.42
2018-01-12T17:18:10.834Z,16.17
2018-01-12T17:20:37.769Z,14.90
2018-01-12T17:23:05.471Z,14.65
2018-01-12T17:25:33.147Z,15.18
2018-01-12T17:28:00.138Z,15.05
2018-01-12T17:30:27.085Z,13.62
2018-01-12T17:32:54.024Z,15.43
2018-01-12T17:35:21.701Z,15.57
2018-01-12T17:37:48.653Z,15.32
2018-01-12T17:40:15.753Z,14.25
2018-01-12T17:42:43.455Z,14.60
2018-01-12T17:45:10.366Z,14.85
2018-01-12T17:47:38.061Z,16.30
2018-01-12T17:50:04.984Z,16.33
2018-01-12T17:52:31.905Z,17.15
2018-01-12T17:54:59.585Z,15.57
2018-01-12T17:57:27.286Z,16.58
2018-01-12T17:59:54.196Z,16.02
2018-01-12T18:02:23.047Z,15.60
2018-01-12T18:04:49.972Z,14.45
2018-01-12T18:07:16.902Z,15.32
2018-01-12T18:09:43.830Z,15.05
2018-01-12T18:12:10.805Z,14.18
2018-01-12T18:14:37.716Z,14.75
2018-01-12T18:17:04.638Z,15.05
2018-01-12T18:19:31.555Z,12.77
2018-01-12T18:21:58.492Z,14.23
2018-01-12T18:24:26.406Z,13.60
2018-01-12T18:26:53.315Z,14.77
2018-01-12T18:29:21.019Z,13.88
2018-01-12T18:31:47.930Z,14.10
2018-01-12T18:34:15.624Z,14.05
2018-01-12T18:36:43.316Z,13.93
2018-01-12T18:39:10.244Z,14.20
2018-01-12T18:41:37.152Z,16.67
2018-01-12T18:44:04.086Z,13.32
2018-01-12T18:46:31.764Z,13.57
2018-01-12T18:48:58.740Z,14.95
2018-01-12T18:51:25.652Z,15.65
2018-01-12T18:53:53.416Z,14.23
2018-01-12T18:56:20.339Z,15.15
2018-01-12T18:58:48.087Z,16.40
2018-01-12T19:01:14.972Z,16.37
2018-01-12T19:03:41.926Z,16.02
2018-01-12T19:06:08.844Z,15.98
2018-01-12T19:08:36.540Z,15.10
2018-01-12T19:11:03.448Z,15.48
2018-01-12T19:13:30.384Z,14.70
2018-01-12T19:15:57.315Z,15.10
2018-01-12T19:18:24.278Z,15.05
2018-01-12T19:20:51.185Z,14.32
2018-01-12T19:23:18.103Z,13.93
2018-01-12T19:25:45.020Z,14.90
2018-01-12T19:28:12.744Z,14.80
2018-01-12T19:30:39.669Z,15.82
2018-01-12T19:33:06.696Z,14.65
2018-01-12T19:35:33.611Z,15.38
2018-01-12T19:38:00.544Z,15.18
2018-01-12T19:40:27.459Z,14.35
2018-01-12T19:42:55.333Z,13.30
2018-01-12T19:45:22.250Z,14.50
2018-01-12T19:47:49.197Z,14.82
2018-01-12T19:50:16.120Z,15.82
2018-01-12T19:52:44.029Z,14.85
2018-01-12T19:55:10.948Z,14.57
2018-01-12T19:57:37.883Z,12.93
2018-01-12T20:00:05.568Z,13.55
2018-01-12T20:02:32.490Z,14.57
2018-01-12T20:04:59.408Z,15.05
2018-01-12T20:07:26.356Z,13.07
2018-01-12T20:09:53.261Z,13.85
2018-01-12T20:12:20.192Z,12.57
2018-01-12T20:14:47.100Z,13.02
2018-01-12T20:17:14.804Z,13.68
2018-01-12T20:19:41.725Z,13.15
2018-01-12T20:22:08.667Z,13.55
2018-01-12T20:24:35.584Z,15.20
2018-01-12T20:27:03.303Z,14.85
2018-01-12T20:29:30.231Z,13.05
2018-01-12T20:31:57.184Z,14.48
2018-01-12T20:34:24.125Z,14.18
2018-01-12T20:36:51.113Z,12.85
2018-01-12T20:39:20.039Z,13.95
2018-01-12T20:41:46.953Z,12.20
2018-01-12T20:44:13.902Z,13.45
2018-01-12T20:46:40.841Z,13.13
2018-01-12T20:49:07.785Z,14.60
2018-01-12T20:51:34.728Z,14.05
2018-01-12T20:54:01.652Z,14.48
2018-01-12T20:56:28.596Z,14.63
2018-01-12T20:58:55.527Z,15.20
2018-01-12T21:01:22.489Z,13.48
2018-01-12T21:03:49.427Z,13.60
2018-01-12T21:06:17.128Z,14.45
2018-01-12T21:08:44.039Z,15.40
2018-01-12T21:11:10.963Z,14.20
2018-01-12T21:13:37.880Z,15.25
2018-01-12T21:16:04.804Z,16.05
2018-01-12T21:18:31.719Z,16.08
2018-01-12T21:20:58.648Z,17.62
2018-01-12T21:23:25.579Z,15.25
2018-01-12T21:25:52.524Z,16.40
2018-01-12T21:28:19.442Z,17.77
2018-01-12T21:30:47.137Z,17.60
2018-01-12T21:33:14.076Z,17.55
2018-01-12T21:35:41.001Z,15.68
2018-01-12T21:38:07.929Z,15.80
2018-01-12T21:40:34.871Z,16.35
2018-01-12T21:43:01.788Z,17.15
2018-01-12T21:45:28.737Z,16.10
2018-01-12T21:47:56.435Z,17.70
2018-01-12T21:50:23.357Z,16.67
2018-01-12T21:52:51.032Z,17.05
2018-01-12T21:55:18.002Z,16.85
2018-01-12T21:57:44.916Z,18.70
2018-01-12T22:00:12.805Z,17.30
2018-01-12T22:02:39.733Z,17.98
2018-01-12T22:05:06.672Z,16.42
2018-01-12T22:07:33.596Z,18.08
2018-01-12T22:10:01.333Z,17.50
2018-01-12T22:12:28.256Z,16.33
2018-01-12T22:14:55.219Z,16.15
2018-01-12T22:17:22.149Z,16.37
2018-01-12T22:19:49.078Z,17.40
2018-01-12T22:22:16.005Z,17.67
2018-01-12T22:24:43.692Z,18.48
2018-01-12T22:27:10.604Z,17.87
2018-01-12T22:29:37.552Z,17.95
2018-01-12T22:32:04.465Z,17.85
2018-01-12T22:34:31.407Z,18.83
2018-01-12T22:36:58.328Z,19.37
2018-01-12T22:39:25.268Z,19.95
2018-01-12T22:41:52.180Z,19.87
2018-01-12T22:44:20.085Z,19.65
2018-01-12T22:46:47.016Z,21.33
2018-01-12T22:49:13.952Z,17.77
2018-01-12T22:51:40.877Z,19.35
2018-01-12T22:54:07.819Z,21.73
2018-01-12T22:56:34.728Z,20.80
2018-01-12T22:59:01.655Z,21.95
2018-01-12T23:01:28.572Z,21.20
2018-01-12T23:03:55.484Z,20.88
2018-01-12T23:06:22.404Z,21.42
2018-01-12T23:08:49.349Z,22.20
2018-01-12T23:11:16.251Z,22.17
2018-01-12T23:13:43.156Z,21.58
2018-01-12T23:16:10.848Z,22.75
2018-01-12T23:18:37.758Z,21.98
2018-01-12T23:21:05.627Z,21.15
2018-01-12T23:23:33.304Z,21.70
2018-01-12T23:26:00.264Z,23.50
2018-01-12T23:28:27.183Z,24.73
2018-01-12T23:30:54.860Z,23.33
2018-01-12T23:33:21.784Z,21.23
2018-01-12T23:35:49.473Z,22.98
2018-01-12T23:38:16.386Z,24.02
2018-01-12T23:40:44.068Z,23.58
2018-01-12T23:43:10.968Z,23.17
2018-01-12T23:45:37.912Z,22.95
2018-01-12T23:48:05.801Z,22.95
2018-01-12T23:50:33.541Z,25.95
2018-01-12T23:53:00.461Z,25.08
2018-01-12T23:55:27.392Z,24.40
2018-01-12T23:57:54.326Z,27.30
